sensor_id;sensor_type;location;lat;lon;timestamp;temperature;humidity
68485;DHT22;55472;50.060;21.960;2023-03-21T00:02:02;9.40;85.10
68485;DHT22;55472;50.060;21.960;2023-03-21T00:04:28;9.40;85.00
68485;DHT22;55472;50.060;21.960;2023-03-21T00:06:55;9.40;85.10
68485;DHT22;55472;50.060;21.960;2023-03-21T00:09:21;9.40;85.20
68485;DHT22;55472;50.060;21.960;2023-03-21T00:11:48;9.40;85.40
68485;DHT22;55472;50.060;21.960;2023-03-21T00:14:14;9.40;85.40
68485;DHT22;55472;50.060;21.960;2023-03-21T00:16:45;9.40;85.40
68485;DHT22;55472;50.060;21.960;2023-03-21T00:19:16;9.40;85.40
68485;DHT22;55472;50.060;21.960;2023-03-21T00:21:45;9.40;85.50
68485;DHT22;55472;50.060;21.960;2023-03-21T00:24:12;9.40;85.50
68485;DHT22;55472;50.060;21.960;2023-03-21T00:26:38;9.50;85.70
68485;DHT22;55472;50.060;21.960;2023-03-21T00:29:05;9.50;85.60
68485;DHT22;55472;50.060;21.960;2023-03-21T00:31:31;9.50;85.70
68485;DHT22;55472;50.060;21.960;2023-03-21T00:33:57;9.50;85.70
68485;DHT22;55472;50.060;21.960;2023-03-21T00:36:23;9.50;85.60
68485;DHT22;55472;50.060;21.960;2023-03-21T00:38:50;9.50;85.60
68485;DHT22;55472;50.060;21.960;2023-03-21T00:41:17;9.50;85.70
68485;DHT22;55472;50.060;21.960;2023-03-21T00:43:43;9.60;85.70
68485;DHT22;55472;50.060;21.960;2023-03-21T00:46:09;9.60;85.70
68485;DHT22;55472;50.060;21.960;2023-03-21T00:48:35;9.60;85.50
68485;DHT22;55472;50.060;21.960;2023-03-21T00:51:02;9.60;85.50
68485;DHT22;55472;50.060;21.960;2023-03-21T00:53:37;9.60;85.50
68485;DHT22;55472;50.060;21.960;2023-03-21T00:56:03;9.60;85.60
68485;DHT22;55472;50.060;21.960;2023-03-21T00:58:30;9.60;85.40
68485;DHT22;55472;50.060;21.960;2023-03-21T01:00:56;9.70;85.50
68485;DHT22;55472;50.060;21.960;2023-03-21T01:03:22;9.60;85.70
68485;DHT22;55472;50.060;21.960;2023-03-21T01:05:51;9.60;85.80
68485;DHT22;55472;50.060;21.960;2023-03-21T01:08:31;9.60;85.80
68485;DHT22;55472;50.060;21.960;2023-03-21T01:11:07;9.60;85.60
68485;DHT22;55472;50.060;21.960;2023-03-21T01:13:35;9.60;85.70
68485;DHT22;55472;50.060;21.960;2023-03-21T01:16:04;9.60;85.70
68485;DHT22;55472;50.060;21.960;2023-03-21T01:18:32;9.60;85.60
68485;DHT22;55472;50.060;21.960;2023-03-21T01:21:00;9.60;85.50
68485;DHT22;55472;50.060;21.960;2023-03-21T01:23:28;9.60;85.50
68485;DHT22;55472;50.060;21.960;2023-03-21T01:25:55;9.50;85.60
68485;DHT22;55472;50.060;21.960;2023-03-21T01:28:25;9.50;85.60
68485;DHT22;55472;50.060;21.960;2023-03-21T01:30:53;9.50;85.50
68485;DHT22;55472;50.060;21.960;2023-03-21T01:33:20;9.50;85.60
68485;DHT22;55472;50.060;21.960;2023-03-21T01:35:47;9.50;85.60
68485;DHT22;55472;50.060;21.960;2023-03-21T01:38:14;9.50;85.70
68485;DHT22;55472;50.060;21.960;2023-03-21T01:40:42;9.50;85.80
68485;DHT22;55472;50.060;21.960;2023-03-21T01:43:31;9.50;86.00
68485;DHT22;55472;50.060;21.960;2023-03-21T01:46:28;9.40;86.20
68485;DHT22;55472;50.060;21.960;2023-03-21T01:49:13;9.40;86.20
68485;DHT22;55472;50.060;21.960;2023-03-21T01:52:02;9.40;86.20
68485;DHT22;55472;50.060;21.960;2023-03-21T01:54:34;9.40;86.40
68485;DHT22;55472;50.060;21.960;2023-03-21T01:57:10;9.40;86.30
68485;DHT22;55472;50.060;21.960;2023-03-21T01:59:42;9.30;86.40
68485;DHT22;55472;50.060;21.960;2023-03-21T02:02:13;9.30;86.50
68485;DHT22;55472;50.060;21.960;2023-03-21T02:04:43;9.30;86.60
68485;DHT22;55472;50.060;21.960;2023-03-21T02:07:29;9.30;86.80
68485;DHT22;55472;50.060;21.960;2023-03-21T02:10:03;9.30;86.90
68485;DHT22;55472;50.060;21.960;2023-03-21T02:12:32;9.30;87.10
68485;DHT22;55472;50.060;21.960;2023-03-21T02:14:59;9.30;87.40
68485;DHT22;55472;50.060;21.960;2023-03-21T02:17:55;9.30;87.50
68485;DHT22;55472;50.060;21.960;2023-03-21T02:38:07;9.20;89.20
68485;DHT22;55472;50.060;21.960;2023-03-21T02:49:30;9.10;90.40
68485;DHT22;55472;50.060;21.960;2023-03-21T02:52:02;9.10;90.60
68485;DHT22;55472;50.060;21.960;2023-03-21T02:54:32;9.10;90.80
68485;DHT22;55472;50.060;21.960;2023-03-21T02:57:01;9.10;91.00
68485;DHT22;55472;50.060;21.960;2023-03-21T02:59:29;9.10;91.10
68485;DHT22;55472;50.060;21.960;2023-03-21T03:01:57;9.10;91.40
68485;DHT22;55472;50.060;21.960;2023-03-21T03:04:25;9.10;91.50
68485;DHT22;55472;50.060;21.960;2023-03-21T03:07:02;9.10;91.50
68485;DHT22;55472;50.060;21.960;2023-03-21T03:10:05;9.00;91.70
68485;DHT22;55472;50.060;21.960;2023-03-21T03:12:55;9.00;91.70
68485;DHT22;55472;50.060;21.960;2023-03-21T03:18:54;9.00;92.00
68485;DHT22;55472;50.060;21.960;2023-03-21T03:21:39;9.00;92.20
68485;DHT22;55472;50.060;21.960;2023-03-21T03:24:33;9.00;92.30
68485;DHT22;55472;50.060;21.960;2023-03-21T03:27:10;9.00;92.50
68485;DHT22;55472;50.060;21.960;2023-03-21T03:29:42;9.00;92.60
68485;DHT22;55472;50.060;21.960;2023-03-21T03:32:14;9.00;92.70
68485;DHT22;55472;50.060;21.960;2023-03-21T03:34:47;9.00;93.00
68485;DHT22;55472;50.060;21.960;2023-03-21T03:37:27;9.00;93.10
68485;DHT22;55472;50.060;21.960;2023-03-21T03:43:19;9.00;93.20
68485;DHT22;55472;50.060;21.960;2023-03-21T03:45:55;9.00;93.40
68485;DHT22;55472;50.060;21.960;2023-03-21T03:48:54;9.00;93.30
68485;DHT22;55472;50.060;21.960;2023-03-21T03:51:58;9.00;93.50
68485;DHT22;55472;50.060;21.960;2023-03-21T03:54:32;9.00;93.50
68485;DHT22;55472;50.060;21.960;2023-03-21T03:57:03;9.00;93.70
68485;DHT22;55472;50.060;21.960;2023-03-21T03:59:32;9.00;93.60
68485;DHT22;55472;50.060;21.960;2023-03-21T04:02:00;9.00;93.60
68485;DHT22;55472;50.060;21.960;2023-03-21T04:04:26;9.00;93.70
68485;DHT22;55472;50.060;21.960;2023-03-21T04:06:53;9.00;93.60
68485;DHT22;55472;50.060;21.960;2023-03-21T04:09:20;9.00;93.60
68485;DHT22;55472;50.060;21.960;2023-03-21T04:11:47;9.00;93.80
68485;DHT22;55472;50.060;21.960;2023-03-21T04:14:13;9.00;93.80
68485;DHT22;55472;50.060;21.960;2023-03-21T04:16:39;8.90;93.80
68485;DHT22;55472;50.060;21.960;2023-03-21T04:19:06;9.00;93.90
68485;DHT22;55472;50.060;21.960;2023-03-21T04:21:32;9.00;93.90
68485;DHT22;55472;50.060;21.960;2023-03-21T04:23:58;9.00;94.00
68485;DHT22;55472;50.060;21.960;2023-03-21T04:26:25;8.90;94.00
68485;DHT22;55472;50.060;21.960;2023-03-21T04:28:58;8.90;94.10
68485;DHT22;55472;50.060;21.960;2023-03-21T04:31:29;8.90;94.20
68485;DHT22;55472;50.060;21.960;2023-03-21T04:33:57;8.90;94.20
68485;DHT22;55472;50.060;21.960;2023-03-21T04:36:24;8.90;94.30
68485;DHT22;55472;50.060;21.960;2023-03-21T04:38:54;8.90;94.50
68485;DHT22;55472;50.060;21.960;2023-03-21T04:41:21;8.90;94.70
68485;DHT22;55472;50.060;21.960;2023-03-21T04:43:48;8.90;94.60
68485;DHT22;55472;50.060;21.960;2023-03-21T04:46:14;8.80;94.60
68485;DHT22;55472;50.060;21.960;2023-03-21T04:48:40;8.80;94.80
68485;DHT22;55472;50.060;21.960;2023-03-21T04:51:06;8.80;95.00
68485;DHT22;55472;50.060;21.960;2023-03-21T04:53:32;8.80;95.10
68485;DHT22;55472;50.060;21.960;2023-03-21T04:55:58;8.80;95.00
68485;DHT22;55472;50.060;21.960;2023-03-21T04:58:25;8.80;95.10
68485;DHT22;55472;50.060;21.960;2023-03-21T05:00:52;8.80;95.20
68485;DHT22;55472;50.060;21.960;2023-03-21T05:03:18;8.80;95.20
68485;DHT22;55472;50.060;21.960;2023-03-21T05:05:46;8.80;95.30
68485;DHT22;55472;50.060;21.960;2023-03-21T05:08:14;8.80;95.20
68485;DHT22;55472;50.060;21.960;2023-03-21T05:10:41;8.80;95.20
68485;DHT22;55472;50.060;21.960;2023-03-21T05:13:11;8.80;95.20
68485;DHT22;55472;50.060;21.960;2023-03-21T05:15:37;8.80;95.30
68485;DHT22;55472;50.060;21.960;2023-03-21T05:18:04;8.80;95.50
68485;DHT22;55472;50.060;21.960;2023-03-21T05:20:36;8.80;95.50
68485;DHT22;55472;50.060;21.960;2023-03-21T05:23:09;8.80;95.50
68485;DHT22;55472;50.060;21.960;2023-03-21T05:25:37;8.80;95.40
68485;DHT22;55472;50.060;21.960;2023-03-21T05:28:05;8.80;95.50
68485;DHT22;55472;50.060;21.960;2023-03-21T05:30:32;8.80;95.60
68485;DHT22;55472;50.060;21.960;2023-03-21T05:32:59;8.80;95.70
68485;DHT22;55472;50.060;21.960;2023-03-21T05:35:25;8.80;95.60
68485;DHT22;55472;50.060;21.960;2023-03-21T05:37:52;8.80;95.60
68485;DHT22;55472;50.060;21.960;2023-03-21T05:40:19;8.80;95.70
68485;DHT22;55472;50.060;21.960;2023-03-21T05:42:46;8.80;95.70
68485;DHT22;55472;50.060;21.960;2023-03-21T05:45:13;8.90;95.70
68485;DHT22;55472;50.060;21.960;2023-03-21T05:47:40;8.90;95.70
68485;DHT22;55472;50.060;21.960;2023-03-21T05:50:07;8.90;95.90
68485;DHT22;55472;50.060;21.960;2023-03-21T05:52:33;8.90;95.80
68485;DHT22;55472;50.060;21.960;2023-03-21T05:55:00;8.90;95.80
68485;DHT22;55472;50.060;21.960;2023-03-21T05:57:26;9.00;95.70
68485;DHT22;55472;50.060;21.960;2023-03-21T05:59:53;9.00;95.60
68485;DHT22;55472;50.060;21.960;2023-03-21T06:02:20;9.00;95.60
68485;DHT22;55472;50.060;21.960;2023-03-21T06:04:46;9.00;95.30
68485;DHT22;55472;50.060;21.960;2023-03-21T06:07:12;9.00;95.10
68485;DHT22;55472;50.060;21.960;2023-03-21T06:09:38;9.00;94.90
68485;DHT22;55472;50.060;21.960;2023-03-21T06:12:05;9.00;94.90
68485;DHT22;55472;50.060;21.960;2023-03-21T06:14:31;9.00;94.80
68485;DHT22;55472;50.060;21.960;2023-03-21T06:16:57;9.00;94.70
68485;DHT22;55472;50.060;21.960;2023-03-21T06:19:49;9.10;94.70
68485;DHT22;55472;50.060;21.960;2023-03-21T06:23:09;9.10;94.60
68485;DHT22;55472;50.060;21.960;2023-03-21T06:25:35;9.10;94.60
68485;DHT22;55472;50.060;21.960;2023-03-21T06:28:01;9.10;94.70
68485;DHT22;55472;50.060;21.960;2023-03-21T06:30:28;9.10;95.00
68485;DHT22;55472;50.060;21.960;2023-03-21T06:32:54;9.10;95.20
68485;DHT22;55472;50.060;21.960;2023-03-21T06:35:20;9.10;95.10
68485;DHT22;55472;50.060;21.960;2023-03-21T06:37:46;9.10;95.10
68485;DHT22;55472;50.060;21.960;2023-03-21T06:40:14;9.10;95.30
68485;DHT22;55472;50.060;21.960;2023-03-21T06:42:40;9.10;95.60
68485;DHT22;55472;50.060;21.960;2023-03-21T06:45:07;9.10;95.90
68485;DHT22;55472;50.060;21.960;2023-03-21T06:47:33;9.20;95.80
68485;DHT22;55472;50.060;21.960;2023-03-21T06:50:00;9.20;95.50
68485;DHT22;55472;50.060;21.960;2023-03-21T06:52:26;9.20;95.50
68485;DHT22;55472;50.060;21.960;2023-03-21T06:54:52;9.20;95.30
68485;DHT22;55472;50.060;21.960;2023-03-21T06:57:18;9.20;95.10
68485;DHT22;55472;50.060;21.960;2023-03-21T06:59:46;9.30;95.30
68485;DHT22;55472;50.060;21.960;2023-03-21T07:02:12;9.30;95.40
68485;DHT22;55472;50.060;21.960;2023-03-21T07:04:39;9.30;95.30
68485;DHT22;55472;50.060;21.960;2023-03-21T07:07:05;9.30;95.10
68485;DHT22;55472;50.060;21.960;2023-03-21T07:09:31;9.40;94.90
68485;DHT22;55472;50.060;21.960;2023-03-21T07:11:57;9.40;94.50
68485;DHT22;55472;50.060;21.960;2023-03-21T07:14:24;9.40;94.50
68485;DHT22;55472;50.060;21.960;2023-03-21T07:16:50;9.50;94.30
68485;DHT22;55472;50.060;21.960;2023-03-21T07:19:16;9.50;94.00
68485;DHT22;55472;50.060;21.960;2023-03-21T07:21:42;9.50;94.00
68485;DHT22;55472;50.060;21.960;2023-03-21T07:24:09;9.60;93.50
68485;DHT22;55472;50.060;21.960;2023-03-21T07:26:35;9.60;93.40
68485;DHT22;55472;50.060;21.960;2023-03-21T07:29:01;9.60;93.20
68485;DHT22;55472;50.060;21.960;2023-03-21T07:31:28;9.60;93.10
68485;DHT22;55472;50.060;21.960;2023-03-21T07:33:54;9.60;93.00
68485;DHT22;55472;50.060;21.960;2023-03-21T07:36:20;9.60;92.90
68485;DHT22;55472;50.060;21.960;2023-03-21T07:38:47;9.70;92.70
68485;DHT22;55472;50.060;21.960;2023-03-21T07:41:13;9.60;92.60
68485;DHT22;55472;50.060;21.960;2023-03-21T07:43:39;9.70;92.70
68485;DHT22;55472;50.060;21.960;2023-03-21T07:46:05;9.60;92.60
68485;DHT22;55472;50.060;21.960;2023-03-21T07:48:32;9.70;93.20
68485;DHT22;55472;50.060;21.960;2023-03-21T07:51:01;9.60;93.30
68485;DHT22;55472;50.060;21.960;2023-03-21T07:53:28;9.70;93.60
68485;DHT22;55472;50.060;21.960;2023-03-21T07:55:55;9.70;93.70
68485;DHT22;55472;50.060;21.960;2023-03-21T07:58:25;9.80;93.60
68485;DHT22;55472;50.060;21.960;2023-03-21T08:00:53;9.80;93.40
68485;DHT22;55472;50.060;21.960;2023-03-21T08:03:21;9.80;93.10
68485;DHT22;55472;50.060;21.960;2023-03-21T08:05:48;9.80;92.70
68485;DHT22;55472;50.060;21.960;2023-03-21T08:08:15;9.90;92.40
68485;DHT22;55472;50.060;21.960;2023-03-21T08:10:42;9.90;92.50
68485;DHT22;55472;50.060;21.960;2023-03-21T08:13:09;10.00;92.50
68485;DHT22;55472;50.060;21.960;2023-03-21T08:15:35;10.10;92.30
68485;DHT22;55472;50.060;21.960;2023-03-21T08:18:02;10.20;91.70
68485;DHT22;55472;50.060;21.960;2023-03-21T08:20:28;10.20;91.20
68485;DHT22;55472;50.060;21.960;2023-03-21T08:22:55;10.30;90.00
68485;DHT22;55472;50.060;21.960;2023-03-21T08:25:21;10.30;89.30
68485;DHT22;55472;50.060;21.960;2023-03-21T08:27:48;10.30;89.70
68485;DHT22;55472;50.060;21.960;2023-03-21T08:30:19;10.40;88.40
68485;DHT22;55472;50.060;21.960;2023-03-21T08:32:47;10.40;88.10
68485;DHT22;55472;50.060;21.960;2023-03-21T08:35:15;10.50;88.10
68485;DHT22;55472;50.060;21.960;2023-03-21T08:37:43;10.70;87.60
68485;DHT22;55472;50.060;21.960;2023-03-21T08:40:14;11.10;86.60
68485;DHT22;55472;50.060;21.960;2023-03-21T08:42:43;11.70;83.40
68485;DHT22;55472;50.060;21.960;2023-03-21T08:45:11;12.10;82.10
68485;DHT22;55472;50.060;21.960;2023-03-21T08:47:38;12.70;77.70
68485;DHT22;55472;50.060;21.960;2023-03-21T08:50:06;12.70;76.10
68485;DHT22;55472;50.060;21.960;2023-03-21T08:52:34;12.60;76.10
68485;DHT22;55472;50.060;21.960;2023-03-21T08:55:00;12.60;76.20
68485;DHT22;55472;50.060;21.960;2023-03-21T08:57:27;12.60;76.70
68485;DHT22;55472;50.060;21.960;2023-03-21T08:59:54;12.60;75.60
68485;DHT22;55472;50.060;21.960;2023-03-21T09:02:20;12.60;74.80
68485;DHT22;55472;50.060;21.960;2023-03-21T09:04:46;12.60;74.60
68485;DHT22;55472;50.060;21.960;2023-03-21T09:07:13;12.50;75.10
68485;DHT22;55472;50.060;21.960;2023-03-21T09:09:42;12.40;75.70
68485;DHT22;55472;50.060;21.960;2023-03-21T09:12:09;12.40;75.20
68485;DHT22;55472;50.060;21.960;2023-03-21T09:14:35;12.30;74.80
68485;DHT22;55472;50.060;21.960;2023-03-21T09:17:01;12.50;74.20
68485;DHT22;55472;50.060;21.960;2023-03-21T09:19:27;12.60;73.90
68485;DHT22;55472;50.060;21.960;2023-03-21T09:21:55;12.70;73.10
68485;DHT22;55472;50.060;21.960;2023-03-21T09:24:22;12.70;73.10
68485;DHT22;55472;50.060;21.960;2023-03-21T09:26:49;12.60;72.90
68485;DHT22;55472;50.060;21.960;2023-03-21T09:29:17;12.60;72.10
68485;DHT22;55472;50.060;21.960;2023-03-21T09:31:45;12.50;71.90
68485;DHT22;55472;50.060;21.960;2023-03-21T09:34:12;12.60;71.10
68485;DHT22;55472;50.060;21.960;2023-03-21T09:36:40;12.60;70.70
68485;DHT22;55472;50.060;21.960;2023-03-21T09:39:09;12.60;70.60
68485;DHT22;55472;50.060;21.960;2023-03-21T09:47:40;12.70;71.80
68485;DHT22;55472;50.060;21.960;2023-03-21T09:53:03;12.70;71.60
68485;DHT22;55472;50.060;21.960;2023-03-21T09:55:35;12.70;71.90
68485;DHT22;55472;50.060;21.960;2023-03-21T09:58:29;12.70;71.60
68485;DHT22;55472;50.060;21.960;2023-03-21T10:01:17;12.80;70.70
68485;DHT22;55472;50.060;21.960;2023-03-21T10:03:53;12.80;69.80
68485;DHT22;55472;50.060;21.960;2023-03-21T10:06:22;12.80;69.40
68485;DHT22;55472;50.060;21.960;2023-03-21T10:09:05;12.90;69.70
68485;DHT22;55472;50.060;21.960;2023-03-21T10:11:51;12.90;69.70
68485;DHT22;55472;50.060;21.960;2023-03-21T10:14:36;12.90;69.40
68485;DHT22;55472;50.060;21.960;2023-03-21T10:22:49;12.90;69.30
68485;DHT22;55472;50.060;21.960;2023-03-21T10:25:25;12.90;69.70
68485;DHT22;55472;50.060;21.960;2023-03-21T10:27:55;12.90;69.70
68485;DHT22;55472;50.060;21.960;2023-03-21T10:30:37;12.90;70.00
68485;DHT22;55472;50.060;21.960;2023-03-21T10:33:12;12.90;69.30
68485;DHT22;55472;50.060;21.960;2023-03-21T10:35:43;12.90;69.40
68485;DHT22;55472;50.060;21.960;2023-03-21T10:38:19;12.90;69.70
68485;DHT22;55472;50.060;21.960;2023-03-21T10:40:47;12.90;69.70
68485;DHT22;55472;50.060;21.960;2023-03-21T10:45:53;13.00;68.80
68485;DHT22;55472;50.060;21.960;2023-03-21T10:48:21;13.00;67.80
68485;DHT22;55472;50.060;21.960;2023-03-21T10:50:51;13.10;68.50
68485;DHT22;55472;50.060;21.960;2023-03-21T10:53:28;13.10;68.50
68485;DHT22;55472;50.060;21.960;2023-03-21T10:55:59;13.40;68.00
68485;DHT22;55472;50.060;21.960;2023-03-21T10:58:29;13.70;66.90
68485;DHT22;55472;50.060;21.960;2023-03-21T11:01:02;14.20;66.80
68485;DHT22;55472;50.060;21.960;2023-03-21T11:03:38;14.60;65.00
68485;DHT22;55472;50.060;21.960;2023-03-21T11:08:53;15.10;61.80
68485;DHT22;55472;50.060;21.960;2023-03-21T11:11:27;15.10;61.10
68485;DHT22;55472;50.060;21.960;2023-03-21T11:14:01;14.90;61.20
68485;DHT22;55472;50.060;21.960;2023-03-21T11:16:41;14.70;62.30
68485;DHT22;55472;50.060;21.960;2023-03-21T11:19:29;14.40;63.00
68485;DHT22;55472;50.060;21.960;2023-03-21T11:21:58;14.20;63.80
68485;DHT22;55472;50.060;21.960;2023-03-21T11:24:31;13.90;65.00
68485;DHT22;55472;50.060;21.960;2023-03-21T11:26:58;13.60;65.70
68485;DHT22;55472;50.060;21.960;2023-03-21T11:29:32;13.40;67.30
68485;DHT22;55472;50.060;21.960;2023-03-21T11:32:42;13.10;68.80
68485;DHT22;55472;50.060;21.960;2023-03-21T11:35:22;12.90;70.10
68485;DHT22;55472;50.060;21.960;2023-03-21T11:37:53;12.60;71.40
68485;DHT22;55472;50.060;21.960;2023-03-21T11:40:32;12.50;72.90
68485;DHT22;55472;50.060;21.960;2023-03-21T11:43:02;12.30;74.40
68485;DHT22;55472;50.060;21.960;2023-03-21T11:48:39;12.10;76.10
68485;DHT22;55472;50.060;21.960;2023-03-21T11:51:21;12.10;76.90
68485;DHT22;55472;50.060;21.960;2023-03-21T11:56:58;12.10;76.50
68485;DHT22;55472;50.060;21.960;2023-03-21T12:05:17;11.90;76.90
68485;DHT22;55472;50.060;21.960;2023-03-21T12:07:58;11.90;76.80
68485;DHT22;55472;50.060;21.960;2023-03-21T12:24:56;11.40;79.80
68485;DHT22;55472;50.060;21.960;2023-03-21T12:36:43;11.10;83.00
68485;DHT22;55472;50.060;21.960;2023-03-21T12:39:23;11.10;83.70
68485;DHT22;55472;50.060;21.960;2023-03-21T12:42:04;11.20;84.70
68485;DHT22;55472;50.060;21.960;2023-03-21T12:44:40;11.20;85.10
68485;DHT22;55472;50.060;21.960;2023-03-21T12:47:18;11.30;84.80
68485;DHT22;55472;50.060;21.960;2023-03-21T12:49:52;11.40;85.10
68485;DHT22;55472;50.060;21.960;2023-03-21T12:52:49;11.40;85.30
68485;DHT22;55472;50.060;21.960;2023-03-21T12:58:05;11.40;84.10
68485;DHT22;55472;50.060;21.960;2023-03-21T13:00:41;11.30;84.00
68485;DHT22;55472;50.060;21.960;2023-03-21T13:06:02;11.20;84.00
68485;DHT22;55472;50.060;21.960;2023-03-21T13:08:30;11.10;83.80
68485;DHT22;55472;50.060;21.960;2023-03-21T13:10:59;11.10;83.90
68485;DHT22;55472;50.060;21.960;2023-03-21T13:16:30;11.10;85.60
68485;DHT22;55472;50.060;21.960;2023-03-21T13:24:32;11.70;82.50
68485;DHT22;55472;50.060;21.960;2023-03-21T13:27:12;11.90;81.00
68485;DHT22;55472;50.060;21.960;2023-03-21T13:29:43;11.90;79.50
68485;DHT22;55472;50.060;21.960;2023-03-21T13:32:24;12.00;78.80
68485;DHT22;55472;50.060;21.960;2023-03-21T13:34:57;12.00;79.00
68485;DHT22;55472;50.060;21.960;2023-03-21T13:37:30;12.10;78.70
68485;DHT22;55472;50.060;21.960;2023-03-21T13:40:07;12.20;79.20
68485;DHT22;55472;50.060;21.960;2023-03-21T13:42:54;12.20;78.80
68485;DHT22;55472;50.060;21.960;2023-03-21T13:48:04;12.20;78.30
68485;DHT22;55472;50.060;21.960;2023-03-21T13:51:03;12.20;78.20
68485;DHT22;55472;50.060;21.960;2023-03-21T13:53:41;12.10;78.00
68485;DHT22;55472;50.060;21.960;2023-03-21T14:04:26;11.80;79.10
68485;DHT22;55472;50.060;21.960;2023-03-21T14:07:04;11.70;80.10
68485;DHT22;55472;50.060;21.960;2023-03-21T14:09:45;11.60;80.20
68485;DHT22;55472;50.060;21.960;2023-03-21T14:12:16;11.50;80.40
68485;DHT22;55472;50.060;21.960;2023-03-21T14:14:53;11.50;80.70
68485;DHT22;55472;50.060;21.960;2023-03-21T14:17:32;11.30;82.60
68485;DHT22;55472;50.060;21.960;2023-03-21T14:20:23;11.20;83.20
68485;DHT22;55472;50.060;21.960;2023-03-21T14:22:57;10.90;84.30
68485;DHT22;55472;50.060;21.960;2023-03-21T14:25:25;10.70;86.00
68485;DHT22;55472;50.060;21.960;2023-03-21T14:28:00;10.60;86.60
68485;DHT22;55472;50.060;21.960;2023-03-21T14:30:37;10.50;87.50
68485;DHT22;55472;50.060;21.960;2023-03-21T14:35:46;10.40;88.10
68485;DHT22;55472;50.060;21.960;2023-03-21T14:38:24;10.40;87.60
68485;DHT22;55472;50.060;21.960;2023-03-21T14:40:54;10.40;88.10
68485;DHT22;55472;50.060;21.960;2023-03-21T14:43:24;10.40;88.80
68485;DHT22;55472;50.060;21.960;2023-03-21T14:45:53;10.40;88.30
68485;DHT22;55472;50.060;21.960;2023-03-21T14:48:29;10.40;88.30
68485;DHT22;55472;50.060;21.960;2023-03-21T14:51:01;10.40;88.50
68485;DHT22;55472;50.060;21.960;2023-03-21T14:53:36;10.40;88.20
68485;DHT22;55472;50.060;21.960;2023-03-21T14:56:23;10.30;88.00
68485;DHT22;55472;50.060;21.960;2023-03-21T14:58:51;10.30;88.20
68485;DHT22;55472;50.060;21.960;2023-03-21T15:01:28;10.30;88.10
68485;DHT22;55472;50.060;21.960;2023-03-21T15:03:58;10.20;88.20
68485;DHT22;55472;50.060;21.960;2023-03-21T15:06:25;10.10;87.70
68485;DHT22;55472;50.060;21.960;2023-03-21T15:09:00;10.10;87.90
68485;DHT22;55472;50.060;21.960;2023-03-21T15:11:37;10.00;87.10
68485;DHT22;55472;50.060;21.960;2023-03-21T15:14:10;10.00;87.20
68485;DHT22;55472;50.060;21.960;2023-03-21T15:16:38;9.90;87.30
68485;DHT22;55472;50.060;21.960;2023-03-21T15:19:05;9.90;87.20
68485;DHT22;55472;50.060;21.960;2023-03-21T15:21:40;9.80;86.80
68485;DHT22;55472;50.060;21.960;2023-03-21T15:24:16;9.70;87.00
68485;DHT22;55472;50.060;21.960;2023-03-21T15:26:47;9.70;86.90
68485;DHT22;55472;50.060;21.960;2023-03-21T15:29:15;9.60;87.30
68485;DHT22;55472;50.060;21.960;2023-03-21T15:31:42;9.60;87.90
68485;DHT22;55472;50.060;21.960;2023-03-21T15:34:23;9.60;88.10
68485;DHT22;55472;50.060;21.960;2023-03-21T15:36:56;9.60;88.50
68485;DHT22;55472;50.060;21.960;2023-03-21T15:39:28;9.60;89.00
68485;DHT22;55472;50.060;21.960;2023-03-21T15:42:18;9.60;89.10
68485;DHT22;55472;50.060;21.960;2023-03-21T15:44:52;9.60;88.90
68485;DHT22;55472;50.060;21.960;2023-03-21T15:50:35;9.50;89.00
68485;DHT22;55472;50.060;21.960;2023-03-21T15:53:10;9.50;89.10
68485;DHT22;55472;50.060;21.960;2023-03-21T15:58:18;9.50;89.00
68485;DHT22;55472;50.060;21.960;2023-03-21T16:00:56;9.50;89.00
68485;DHT22;55472;50.060;21.960;2023-03-21T16:03:31;9.50;88.70
68485;DHT22;55472;50.060;21.960;2023-03-21T16:06:21;9.40;88.30
68485;DHT22;55472;50.060;21.960;2023-03-21T16:09:08;9.40;88.70
68485;DHT22;55472;50.060;21.960;2023-03-21T16:11:54;9.40;88.40
68485;DHT22;55472;50.060;21.960;2023-03-21T16:14:23;9.40;88.70
68485;DHT22;55472;50.060;21.960;2023-03-21T16:16:53;9.30;88.90
68485;DHT22;55472;50.060;21.960;2023-03-21T16:19:20;9.30;88.90
68485;DHT22;55472;50.060;21.960;2023-03-21T16:21:48;9.30;88.90
68485;DHT22;55472;50.060;21.960;2023-03-21T16:24:14;9.30;89.30
68485;DHT22;55472;50.060;21.960;2023-03-21T16:26:45;9.20;89.30
68485;DHT22;55472;50.060;21.960;2023-03-21T16:29:16;9.20;89.50
68485;DHT22;55472;50.060;21.960;2023-03-21T16:31:43;9.20;89.40
68485;DHT22;55472;50.060;21.960;2023-03-21T16:34:13;9.20;89.00
68485;DHT22;55472;50.060;21.960;2023-03-21T16:36:40;9.20;89.20
68485;DHT22;55472;50.060;21.960;2023-03-21T16:39:20;9.10;89.60
68485;DHT22;55472;50.060;21.960;2023-03-21T16:41:48;9.10;89.80
68485;DHT22;55472;50.060;21.960;2023-03-21T16:44:16;9.10;90.30
68485;DHT22;55472;50.060;21.960;2023-03-21T16:46:43;9.10;90.40
68485;DHT22;55472;50.060;21.960;2023-03-21T16:49:23;9.10;90.20
68485;DHT22;55472;50.060;21.960;2023-03-21T16:51:52;9.00;90.40
68485;DHT22;55472;50.060;21.960;2023-03-21T16:54:20;8.90;90.60
68485;DHT22;55472;50.060;21.960;2023-03-21T16:56:52;8.90;90.70
68485;DHT22;55472;50.060;21.960;2023-03-21T16:59:20;8.90;90.70
68485;DHT22;55472;50.060;21.960;2023-03-21T17:01:47;8.90;90.90
68485;DHT22;55472;50.060;21.960;2023-03-21T17:04:15;8.80;91.00
68485;DHT22;55472;50.060;21.960;2023-03-21T17:06:47;8.80;91.10
68485;DHT22;55472;50.060;21.960;2023-03-21T17:09:21;8.80;91.40
68485;DHT22;55472;50.060;21.960;2023-03-21T17:11:50;8.70;91.50
68485;DHT22;55472;50.060;21.960;2023-03-21T17:14:17;8.70;91.90
68485;DHT22;55472;50.060;21.960;2023-03-21T17:16:45;8.70;92.30
68485;DHT22;55472;50.060;21.960;2023-03-21T17:19:20;8.70;92.40
68485;DHT22;55472;50.060;21.960;2023-03-21T17:21:51;8.70;92.60
68485;DHT22;55472;50.060;21.960;2023-03-21T17:24:17;8.70;92.60
68485;DHT22;55472;50.060;21.960;2023-03-21T17:26:43;8.70;92.50
68485;DHT22;55472;50.060;21.960;2023-03-21T17:29:14;8.70;92.60
68485;DHT22;55472;50.060;21.960;2023-03-21T17:31:40;8.70;92.70
68485;DHT22;55472;50.060;21.960;2023-03-21T17:34:07;8.70;92.50
68485;DHT22;55472;50.060;21.960;2023-03-21T17:36:37;8.70;92.70
68485;DHT22;55472;50.060;21.960;2023-03-21T17:39:07;8.60;92.90
68485;DHT22;55472;50.060;21.960;2023-03-21T17:41:35;8.60;93.00
68485;DHT22;55472;50.060;21.960;2023-03-21T17:44:02;8.60;93.00
68485;DHT22;55472;50.060;21.960;2023-03-21T17:46:34;8.60;93.30
68485;DHT22;55472;50.060;21.960;2023-03-21T17:49:04;8.60;93.10
68485;DHT22;55472;50.060;21.960;2023-03-21T17:51:31;8.60;93.10
68485;DHT22;55472;50.060;21.960;2023-03-21T17:53:58;8.60;92.80